sensor_id;sensor_type;location;lat;lon;timestamp;temperature;humidity
13436;DHT22;6790;49.520;8.504;2023-06-14T00:00:52;15.70;77.10
13436;DHT22;6790;49.520;8.504;2023-06-14T00:03:19;15.80;79.50
13436;DHT22;6790;49.520;8.504;2023-06-14T00:05:45;15.80;84.50
13436;DHT22;6790;49.520;8.504;2023-06-14T00:08:11;15.90;81.90
13436;DHT22;6790;49.520;8.504;2023-06-14T00:10:37;15.90;82.80
13436;DHT22;6790;49.520;8.504;2023-06-14T00:13:04;15.90;81.40
13436;DHT22;6790;49.520;8.504;2023-06-14T00:15:31;15.80;77.30
13436;DHT22;6790;49.520;8.504;2023-06-14T00:18:00;15.70;76.10
13436;DHT22;6790;49.520;8.504;2023-06-14T00:20:27;15.70;76.70
13436;DHT22;6790;49.520;8.504;2023-06-14T00:22:53;15.60;76.20
13436;DHT22;6790;49.520;8.504;2023-06-14T00:25:22;15.60;75.90
13436;DHT22;6790;49.520;8.504;2023-06-14T00:27:49;15.60;74.80
13436;DHT22;6790;49.520;8.504;2023-06-14T00:30:14;15.50;74.90
13436;DHT22;6790;49.520;8.504;2023-06-14T00:32:40;15.60;75.30
13436;DHT22;6790;49.520;8.504;2023-06-14T00:35:08;15.60;74.20
13436;DHT22;6790;49.520;8.504;2023-06-14T00:37:35;15.60;75.40
13436;DHT22;6790;49.520;8.504;2023-06-14T00:40:01;15.70;72.50
13436;DHT22;6790;49.520;8.504;2023-06-14T00:42:28;15.70;74.10
13436;DHT22;6790;49.520;8.504;2023-06-14T00:44:54;15.70;74.20
13436;DHT22;6790;49.520;8.504;2023-06-14T00:47:20;15.80;75.70
13436;DHT22;6790;49.520;8.504;2023-06-14T00:49:47;15.70;75.10
13436;DHT22;6790;49.520;8.504;2023-06-14T00:52:15;15.70;75.20
13436;DHT22;6790;49.520;8.504;2023-06-14T00:54:41;15.60;75.20
13436;DHT22;6790;49.520;8.504;2023-06-14T00:57:08;15.60;73.90
13436;DHT22;6790;49.520;8.504;2023-06-14T00:59:41;15.50;74.00
13436;DHT22;6790;49.520;8.504;2023-06-14T01:02:08;15.40;74.30
13436;DHT22;6790;49.520;8.504;2023-06-14T01:04:34;15.50;75.90
13436;DHT22;6790;49.520;8.504;2023-06-14T01:13:27;15.30;79.30
13436;DHT22;6790;49.520;8.504;2023-06-14T01:15:57;15.40;80.10
13436;DHT22;6790;49.520;8.504;2023-06-14T01:18:23;15.40;78.60
13436;DHT22;6790;49.520;8.504;2023-06-14T01:20:49;15.50;77.50
13436;DHT22;6790;49.520;8.504;2023-06-14T01:23:25;15.40;78.10
13436;DHT22;6790;49.520;8.504;2023-06-14T01:25:58;15.40;77.20
13436;DHT22;6790;49.520;8.504;2023-06-14T01:28:25;15.40;76.10
13436;DHT22;6790;49.520;8.504;2023-06-14T01:30:53;15.40;77.00
13436;DHT22;6790;49.520;8.504;2023-06-14T01:33:22;15.30;77.60
13436;DHT22;6790;49.520;8.504;2023-06-14T01:35:51;15.20;78.10
13436;DHT22;6790;49.520;8.504;2023-06-14T01:38:19;15.20;78.80
13436;DHT22;6790;49.520;8.504;2023-06-14T01:40:46;15.20;77.80
13436;DHT22;6790;49.520;8.504;2023-06-14T01:43:14;15.30;81.60
13436;DHT22;6790;49.520;8.504;2023-06-14T01:45:42;15.30;79.30
13436;DHT22;6790;49.520;8.504;2023-06-14T01:48:08;15.20;79.20
13436;DHT22;6790;49.520;8.504;2023-06-14T01:50:35;15.20;79.20
13436;DHT22;6790;49.520;8.504;2023-06-14T01:53:00;15.20;78.80
13436;DHT22;6790;49.520;8.504;2023-06-14T01:55:26;15.10;80.50
13436;DHT22;6790;49.520;8.504;2023-06-14T01:57:53;15.10;81.10
13436;DHT22;6790;49.520;8.504;2023-06-14T02:00:20;15.20;80.80
13436;DHT22;6790;49.520;8.504;2023-06-14T02:02:47;15.20;82.30
13436;DHT22;6790;49.520;8.504;2023-06-14T02:05:12;15.10;81.20
13436;DHT22;6790;49.520;8.504;2023-06-14T02:07:38;15.10;82.10
13436;DHT22;6790;49.520;8.504;2023-06-14T02:10:04;15.00;83.30
13436;DHT22;6790;49.520;8.504;2023-06-14T02:12:30;15.00;83.80
13436;DHT22;6790;49.520;8.504;2023-06-14T02:14:56;15.00;84.90
13436;DHT22;6790;49.520;8.504;2023-06-14T02:17:23;15.10;86.30
13436;DHT22;6790;49.520;8.504;2023-06-14T02:19:48;15.10;87.30
13436;DHT22;6790;49.520;8.504;2023-06-14T02:22:15;15.10;90.00
13436;DHT22;6790;49.520;8.504;2023-06-14T02:24:41;15.10;89.00
13436;DHT22;6790;49.520;8.504;2023-06-14T02:27:07;15.00;88.80
13436;DHT22;6790;49.520;8.504;2023-06-14T02:29:35;15.00;88.90
13436;DHT22;6790;49.520;8.504;2023-06-14T02:32:02;14.90;88.80
13436;DHT22;6790;49.520;8.504;2023-06-14T02:34:27;15.00;88.20
13436;DHT22;6790;49.520;8.504;2023-06-14T02:36:53;14.90;90.10
13436;DHT22;6790;49.520;8.504;2023-06-14T02:39:19;14.90;90.00
13436;DHT22;6790;49.520;8.504;2023-06-14T02:41:46;15.00;89.60
13436;DHT22;6790;49.520;8.504;2023-06-14T02:44:13;14.90;89.50
13436;DHT22;6790;49.520;8.504;2023-06-14T02:46:39;15.00;89.10
13436;DHT22;6790;49.520;8.504;2023-06-14T02:49:05;15.10;89.00
13436;DHT22;6790;49.520;8.504;2023-06-14T02:51:30;15.00;90.40
13436;DHT22;6790;49.520;8.504;2023-06-14T02:53:56;15.00;89.70
13436;DHT22;6790;49.520;8.504;2023-06-14T02:56:22;15.00;90.50
13436;DHT22;6790;49.520;8.504;2023-06-14T02:58:48;14.90;90.50
13436;DHT22;6790;49.520;8.504;2023-06-14T03:01:14;14.90;90.50
13436;DHT22;6790;49.520;8.504;2023-06-14T03:03:40;14.90;90.40
13436;DHT22;6790;49.520;8.504;2023-06-14T03:06:06;14.90;90.30
13436;DHT22;6790;49.520;8.504;2023-06-14T03:08:33;14.90;90.30
13436;DHT22;6790;49.520;8.504;2023-06-14T03:11:04;14.80;90.70
13436;DHT22;6790;49.520;8.504;2023-06-14T03:13:31;14.90;90.40
13436;DHT22;6790;49.520;8.504;2023-06-14T03:16:00;14.80;91.10
13436;DHT22;6790;49.520;8.504;2023-06-14T03:18:29;14.70;91.70
13436;DHT22;6790;49.520;8.504;2023-06-14T03:20:56;14.70;91.30
13436;DHT22;6790;49.520;8.504;2023-06-14T03:23:24;14.60;91.80
13436;DHT22;6790;49.520;8.504;2023-06-14T03:25:50;14.50;91.70
13436;DHT22;6790;49.520;8.504;2023-06-14T03:28:17;14.50;91.30
13436;DHT22;6790;49.520;8.504;2023-06-14T03:30:42;14.60;91.40
13436;DHT22;6790;49.520;8.504;2023-06-14T03:33:08;14.60;91.00
13436;DHT22;6790;49.520;8.504;2023-06-14T03:35:34;14.60;91.30
13436;DHT22;6790;49.520;8.504;2023-06-14T03:38:00;14.60;91.30
13436;DHT22;6790;49.520;8.504;2023-06-14T03:40:26;14.60;90.70
13436;DHT22;6790;49.520;8.504;2023-06-14T03:42:54;14.60;91.20
13436;DHT22;6790;49.520;8.504;2023-06-14T03:45:19;14.60;91.50
13436;DHT22;6790;49.520;8.504;2023-06-14T03:47:46;14.60;91.00
13436;DHT22;6790;49.520;8.504;2023-06-14T03:50:11;14.60;90.90
13436;DHT22;6790;49.520;8.504;2023-06-14T03:52:37;14.60;90.40
13436;DHT22;6790;49.520;8.504;2023-06-14T03:55:04;14.60;90.60
13436;DHT22;6790;49.520;8.504;2023-06-14T03:57:30;14.60;90.70
13436;DHT22;6790;49.520;8.504;2023-06-14T03:59:56;14.60;90.90
13436;DHT22;6790;49.520;8.504;2023-06-14T04:02:22;14.60;91.30
13436;DHT22;6790;49.520;8.504;2023-06-14T04:04:48;14.50;91.20
13436;DHT22;6790;49.520;8.504;2023-06-14T04:07:15;14.50;90.60
13436;DHT22;6790;49.520;8.504;2023-06-14T04:09:44;14.50;91.20
13436;DHT22;6790;49.520;8.504;2023-06-14T04:12:11;14.50;90.70
13436;DHT22;6790;49.520;8.504;2023-06-14T04:14:40;14.50;90.70
13436;DHT22;6790;49.520;8.504;2023-06-14T04:17:06;14.60;91.00
13436;DHT22;6790;49.520;8.504;2023-06-14T04:19:32;14.60;91.00
13436;DHT22;6790;49.520;8.504;2023-06-14T04:21:58;14.60;90.90
13436;DHT22;6790;49.520;8.504;2023-06-14T04:24:26;14.60;90.80
13436;DHT22;6790;49.520;8.504;2023-06-14T04:26:58;14.70;91.00
13436;DHT22;6790;49.520;8.504;2023-06-14T04:29:25;14.60;90.90
13436;DHT22;6790;49.520;8.504;2023-06-14T04:31:53;14.70;91.00
13436;DHT22;6790;49.520;8.504;2023-06-14T04:34:20;14.70;91.00
13436;DHT22;6790;49.520;8.504;2023-06-14T04:36:47;14.80;90.90
13436;DHT22;6790;49.520;8.504;2023-06-14T04:39:21;14.80;91.20
13436;DHT22;6790;49.520;8.504;2023-06-14T04:41:48;14.80;90.50
13436;DHT22;6790;49.520;8.504;2023-06-14T04:44:18;14.80;90.20
13436;DHT22;6790;49.520;8.504;2023-06-14T04:46:45;14.90;90.60
13436;DHT22;6790;49.520;8.504;2023-06-14T04:49:15;15.00;90.60
13436;DHT22;6790;49.520;8.504;2023-06-14T04:51:43;15.00;91.00
13436;DHT22;6790;49.520;8.504;2023-06-14T04:54:10;15.10;90.10
13436;DHT22;6790;49.520;8.504;2023-06-14T04:56:40;15.20;89.10
13436;DHT22;6790;49.520;8.504;2023-06-14T04:59:06;15.30;88.90
13436;DHT22;6790;49.520;8.504;2023-06-14T05:01:32;15.40;89.00
13436;DHT22;6790;49.520;8.504;2023-06-14T05:03:59;15.40;87.90
13436;DHT22;6790;49.520;8.504;2023-06-14T05:06:25;15.50;89.60
13436;DHT22;6790;49.520;8.504;2023-06-14T05:08:54;15.50;90.40
13436;DHT22;6790;49.520;8.504;2023-06-14T05:11:20;15.60;87.50
13436;DHT22;6790;49.520;8.504;2023-06-14T05:13:46;15.70;87.30
13436;DHT22;6790;49.520;8.504;2023-06-14T05:16:12;15.70;88.70
13436;DHT22;6790;49.520;8.504;2023-06-14T05:18:38;15.80;88.90
13436;DHT22;6790;49.520;8.504;2023-06-14T05:21:05;15.90;87.20
13436;DHT22;6790;49.520;8.504;2023-06-14T05:23:31;16.10;86.50
13436;DHT22;6790;49.520;8.504;2023-06-14T05:25:57;16.10;86.70
13436;DHT22;6790;49.520;8.504;2023-06-14T05:28:23;16.30;85.80
13436;DHT22;6790;49.520;8.504;2023-06-14T05:30:49;16.40;85.50
13436;DHT22;6790;49.520;8.504;2023-06-14T05:33:15;16.50;84.70
13436;DHT22;6790;49.520;8.504;2023-06-14T05:35:40;16.60;84.40
13436;DHT22;6790;49.520;8.504;2023-06-14T05:38:06;16.80;83.20
13436;DHT22;6790;49.520;8.504;2023-06-14T05:40:33;16.90;82.50
13436;DHT22;6790;49.520;8.504;2023-06-14T05:42:59;17.00;82.40
13436;DHT22;6790;49.520;8.504;2023-06-14T05:45:24;17.10;82.40
13436;DHT22;6790;49.520;8.504;2023-06-14T05:47:50;17.30;82.30
13436;DHT22;6790;49.520;8.504;2023-06-14T05:50:16;17.50;79.40
13436;DHT22;6790;49.520;8.504;2023-06-14T05:52:42;17.70;81.40
13436;DHT22;6790;49.520;8.504;2023-06-14T05:55:08;17.90;77.30
13436;DHT22;6790;49.520;8.504;2023-06-14T05:57:34;18.10;74.90
13436;DHT22;6790;49.520;8.504;2023-06-14T06:00:00;18.20;74.80
13436;DHT22;6790;49.520;8.504;2023-06-14T06:02:26;18.30;73.20
13436;DHT22;6790;49.520;8.504;2023-06-14T06:04:52;18.50;69.80
13436;DHT22;6790;49.520;8.504;2023-06-14T06:07:17;18.70;69.60
13436;DHT22;6790;49.520;8.504;2023-06-14T06:09:43;18.90;65.30
13436;DHT22;6790;49.520;8.504;2023-06-14T06:12:09;19.00;62.80
13436;DHT22;6790;49.520;8.504;2023-06-14T06:14:35;19.20;64.50
13436;DHT22;6790;49.520;8.504;2023-06-14T06:17:01;19.30;61.20
13436;DHT22;6790;49.520;8.504;2023-06-14T06:19:26;19.40;59.60
13436;DHT22;6790;49.520;8.504;2023-06-14T06:21:52;19.40;59.10
13436;DHT22;6790;49.520;8.504;2023-06-14T06:24:18;19.50;58.80
13436;DHT22;6790;49.520;8.504;2023-06-14T06:26:43;19.60;59.00
13436;DHT22;6790;49.520;8.504;2023-06-14T06:29:09;19.90;59.40
13436;DHT22;6790;49.520;8.504;2023-06-14T06:31:35;19.90;58.20
13436;DHT22;6790;49.520;8.504;2023-06-14T06:34:01;20.00;57.60
13436;DHT22;6790;49.520;8.504;2023-06-14T06:36:26;20.10;57.80
13436;DHT22;6790;49.520;8.504;2023-06-14T06:38:52;20.30;57.00
13436;DHT22;6790;49.520;8.504;2023-06-14T06:41:18;20.20;54.80
13436;DHT22;6790;49.520;8.504;2023-06-14T06:43:44;20.10;53.90
13436;DHT22;6790;49.520;8.504;2023-06-14T06:46:10;20.10;53.90
13436;DHT22;6790;49.520;8.504;2023-06-14T06:48:35;20.10;55.30
13436;DHT22;6790;49.520;8.504;2023-06-14T06:51:01;20.30;54.80
13436;DHT22;6790;49.520;8.504;2023-06-14T06:53:27;20.50;56.10
13436;DHT22;6790;49.520;8.504;2023-06-14T06:55:52;20.30;53.10
13436;DHT22;6790;49.520;8.504;2023-06-14T06:58:18;20.30;52.20
13436;DHT22;6790;49.520;8.504;2023-06-14T07:00:44;20.50;54.10
13436;DHT22;6790;49.520;8.504;2023-06-14T07:03:09;20.60;54.00
13436;DHT22;6790;49.520;8.504;2023-06-14T07:05:35;20.90;51.90
13436;DHT22;6790;49.520;8.504;2023-06-14T07:08:01;21.10;51.90
13436;DHT22;6790;49.520;8.504;2023-06-14T07:10:26;21.10;52.00
13436;DHT22;6790;49.520;8.504;2023-06-14T07:12:52;21.00;50.90
13436;DHT22;6790;49.520;8.504;2023-06-14T07:15:18;21.20;51.90
13436;DHT22;6790;49.520;8.504;2023-06-14T07:17:43;21.30;51.20
13436;DHT22;6790;49.520;8.504;2023-06-14T07:20:10;21.30;51.60
13436;DHT22;6790;49.520;8.504;2023-06-14T07:22:40;21.30;52.30
13436;DHT22;6790;49.520;8.504;2023-06-14T07:25:07;21.20;49.60
13436;DHT22;6790;49.520;8.504;2023-06-14T07:27:40;21.20;51.70
13436;DHT22;6790;49.520;8.504;2023-06-14T07:30:07;21.20;50.50
13436;DHT22;6790;49.520;8.504;2023-06-14T07:32:33;21.20;50.60
13436;DHT22;6790;49.520;8.504;2023-06-14T07:34:59;21.20;50.40
13436;DHT22;6790;49.520;8.504;2023-06-14T07:37:25;21.20;51.30
13436;DHT22;6790;49.520;8.504;2023-06-14T07:39:51;21.40;50.30
13436;DHT22;6790;49.520;8.504;2023-06-14T07:42:17;21.70;58.60
13436;DHT22;6790;49.520;8.504;2023-06-14T07:44:42;21.70;55.80
13436;DHT22;6790;49.520;8.504;2023-06-14T07:47:08;21.80;53.20
13436;DHT22;6790;49.520;8.504;2023-06-14T07:49:33;21.90;47.10
13436;DHT22;6790;49.520;8.504;2023-06-14T07:51:59;21.90;53.60
13436;DHT22;6790;49.520;8.504;2023-06-14T07:54:25;22.00;47.70
13436;DHT22;6790;49.520;8.504;2023-06-14T07:56:52;22.00;46.70
13436;DHT22;6790;49.520;8.504;2023-06-14T07:59:18;22.30;44.90
13436;DHT22;6790;49.520;8.504;2023-06-14T08:01:43;22.30;44.30
13436;DHT22;6790;49.520;8.504;2023-06-14T08:04:16;22.20;49.10
13436;DHT22;6790;49.520;8.504;2023-06-14T08:06:42;22.20;46.00
13436;DHT22;6790;49.520;8.504;2023-06-14T08:09:12;22.20;44.80
13436;DHT22;6790;49.520;8.504;2023-06-14T08:11:38;22.50;46.90
13436;DHT22;6790;49.520;8.504;2023-06-14T08:14:04;22.70;44.10
13436;DHT22;6790;49.520;8.504;2023-06-14T08:16:29;22.90;46.20
13436;DHT22;6790;49.520;8.504;2023-06-14T08:18:55;22.80;42.50
13436;DHT22;6790;49.520;8.504;2023-06-14T08:21:21;23.00;45.30
13436;DHT22;6790;49.520;8.504;2023-06-14T08:23:47;23.20;43.00
13436;DHT22;6790;49.520;8.504;2023-06-14T08:26:13;23.30;40.70
13436;DHT22;6790;49.520;8.504;2023-06-14T08:28:41;23.10;41.30
13436;DHT22;6790;49.520;8.504;2023-06-14T08:31:08;22.70;42.30
13436;DHT22;6790;49.520;8.504;2023-06-14T08:33:34;23.10;44.80
13436;DHT22;6790;49.520;8.504;2023-06-14T08:36:00;23.10;40.10
13436;DHT22;6790;49.520;8.504;2023-06-14T08:38:26;23.40;40.30
13436;DHT22;6790;49.520;8.504;2023-06-14T08:40:52;23.20;40.30
13436;DHT22;6790;49.520;8.504;2023-06-14T08:43:22;23.30;39.70
13436;DHT22;6790;49.520;8.504;2023-06-14T08:45:48;23.70;44.30
13436;DHT22;6790;49.520;8.504;2023-06-14T08:48:19;24.00;39.40
13436;DHT22;6790;49.520;8.504;2023-06-14T08:50:47;23.80;40.60
13436;DHT22;6790;49.520;8.504;2023-06-14T08:53:14;23.60;36.30
13436;DHT22;6790;49.520;8.504;2023-06-14T08:55:45;23.50;36.80
13436;DHT22;6790;49.520;8.504;2023-06-14T08:58:13;23.60;35.90
13436;DHT22;6790;49.520;8.504;2023-06-14T09:00:39;23.60;33.30
13436;DHT22;6790;49.520;8.504;2023-06-14T09:03:07;23.50;32.80
13436;DHT22;6790;49.520;8.504;2023-06-14T09:05:36;23.50;33.50
13436;DHT22;6790;49.520;8.504;2023-06-14T09:08:01;23.60;34.60
13436;DHT22;6790;49.520;8.504;2023-06-14T09:10:27;23.50;34.50
13436;DHT22;6790;49.520;8.504;2023-06-14T09:12:54;23.60;34.30
13436;DHT22;6790;49.520;8.504;2023-06-14T09:15:20;24.10;33.80
13436;DHT22;6790;49.520;8.504;2023-06-14T09:17:46;23.90;32.10
13436;DHT22;6790;49.520;8.504;2023-06-14T09:20:13;23.70;30.00
13436;DHT22;6790;49.520;8.504;2023-06-14T09:22:43;24.00;32.00
13436;DHT22;6790;49.520;8.504;2023-06-14T09:25:09;24.00;32.10
13436;DHT22;6790;49.520;8.504;2023-06-14T09:27:35;24.30;31.70
13436;DHT22;6790;49.520;8.504;2023-06-14T09:30:05;24.60;28.80
13436;DHT22;6790;49.520;8.504;2023-06-14T09:32:39;24.10;29.20
13436;DHT22;6790;49.520;8.504;2023-06-14T09:35:09;24.00;32.10
13436;DHT22;6790;49.520;8.504;2023-06-14T09:37:35;24.70;28.60
13436;DHT22;6790;49.520;8.504;2023-06-14T09:40:04;24.40;28.40
13436;DHT22;6790;49.520;8.504;2023-06-14T09:42:31;24.60;29.10
13436;DHT22;6790;49.520;8.504;2023-06-14T09:44:57;24.70;29.60
13436;DHT22;6790;49.520;8.504;2023-06-14T09:47:23;24.50;30.10
13436;DHT22;6790;49.520;8.504;2023-06-14T09:49:51;23.90;30.30
13436;DHT22;6790;49.520;8.504;2023-06-14T09:52:20;24.00;29.70
13436;DHT22;6790;49.520;8.504;2023-06-14T09:54:47;24.30;29.70
13436;DHT22;6790;49.520;8.504;2023-06-14T09:57:21;25.10;31.20
13436;DHT22;6790;49.520;8.504;2023-06-14T09:59:48;24.70;28.50
13436;DHT22;6790;49.520;8.504;2023-06-14T10:02:22;24.90;34.90
13436;DHT22;6790;49.520;8.504;2023-06-14T10:05:05;25.10;29.90
13436;DHT22;6790;49.520;8.504;2023-06-14T10:07:51;25.10;28.60
13436;DHT22;6790;49.520;8.504;2023-06-14T10:10:19;25.00;30.60
13436;DHT22;6790;49.520;8.504;2023-06-14T10:12:45;24.50;30.30
13436;DHT22;6790;49.520;8.504;2023-06-14T10:15:19;23.70;32.00
13436;DHT22;6790;49.520;8.504;2023-06-14T10:17:56;24.10;30.20
13436;DHT22;6790;49.520;8.504;2023-06-14T10:20:50;24.50;30.80
13436;DHT22;6790;49.520;8.504;2023-06-14T10:23:41;24.60;30.00
13436;DHT22;6790;49.520;8.504;2023-06-14T10:26:09;24.50;31.00
13436;DHT22;6790;49.520;8.504;2023-06-14T10:31:40;24.30;29.60
13436;DHT22;6790;49.520;8.504;2023-06-14T10:34:07;24.30;29.10
13436;DHT22;6790;49.520;8.504;2023-06-14T10:36:32;24.00;29.10
13436;DHT22;6790;49.520;8.504;2023-06-14T10:39:10;23.70;30.50
13436;DHT22;6790;49.520;8.504;2023-06-14T10:41:39;24.20;32.40
13436;DHT22;6790;49.520;8.504;2023-06-14T10:46:45;24.10;30.10
13436;DHT22;6790;49.520;8.504;2023-06-14T10:49:11;24.60;31.50
13436;DHT22;6790;49.520;8.504;2023-06-14T10:51:42;24.70;30.10
13436;DHT22;6790;49.520;8.504;2023-06-14T10:54:12;24.90;27.90
13436;DHT22;6790;49.520;8.504;2023-06-14T10:56:46;24.60;29.00
13436;DHT22;6790;49.520;8.504;2023-06-14T10:59:13;23.90;29.90
13436;DHT22;6790;49.520;8.504;2023-06-14T11:05:04;25.00;28.80
13436;DHT22;6790;49.520;8.504;2023-06-14T11:10:41;25.40;28.60
13436;DHT22;6790;49.520;8.504;2023-06-14T11:13:07;25.50;27.00
13436;DHT22;6790;49.520;8.504;2023-06-14T11:15:37;25.90;26.30
13436;DHT22;6790;49.520;8.504;2023-06-14T11:18:07;25.60;28.30
13436;DHT22;6790;49.520;8.504;2023-06-14T11:20:36;25.70;27.90
13436;DHT22;6790;49.520;8.504;2023-06-14T11:23:03;25.40;29.40
13436;DHT22;6790;49.520;8.504;2023-06-14T11:25:29;26.00;29.00
13436;DHT22;6790;49.520;8.504;2023-06-14T11:27:55;25.30;25.60
13436;DHT22;6790;49.520;8.504;2023-06-14T11:30:22;25.10;25.90
13436;DHT22;6790;49.520;8.504;2023-06-14T11:32:49;25.30;26.40
13436;DHT22;6790;49.520;8.504;2023-06-14T11:35:17;25.50;27.00
13436;DHT22;6790;49.520;8.504;2023-06-14T11:37:44;25.20;27.70
13436;DHT22;6790;49.520;8.504;2023-06-14T11:40:11;24.70;30.00
13436;DHT22;6790;49.520;8.504;2023-06-14T11:42:39;24.70;29.10
13436;DHT22;6790;49.520;8.504;2023-06-14T11:45:11;25.40;30.00
13436;DHT22;6790;49.520;8.504;2023-06-14T11:47:39;25.70;26.30
13436;DHT22;6790;49.520;8.504;2023-06-14T11:50:09;26.00;28.00
13436;DHT22;6790;49.520;8.504;2023-06-14T11:52:37;26.20;26.90
13436;DHT22;6790;49.520;8.504;2023-06-14T11:55:03;26.50;26.80
13436;DHT22;6790;49.520;8.504;2023-06-14T11:57:35;26.20;26.30
13436;DHT22;6790;49.520;8.504;2023-06-14T12:00:06;25.70;27.30
13436;DHT22;6790;49.520;8.504;2023-06-14T12:02:37;25.00;27.70
13436;DHT22;6790;49.520;8.504;2023-06-14T12:05:05;24.70;27.20
13436;DHT22;6790;49.520;8.504;2023-06-14T12:07:33;24.60;30.00
13436;DHT22;6790;49.520;8.504;2023-06-14T12:12:25;24.30;29.20
13436;DHT22;6790;49.520;8.504;2023-06-14T12:14:52;24.10;29.60
13436;DHT22;6790;49.520;8.504;2023-06-14T12:17:18;24.40;30.90
13436;DHT22;6790;49.520;8.504;2023-06-14T12:19:48;25.00;33.40
13436;DHT22;6790;49.520;8.504;2023-06-14T12:22:16;24.70;30.50
13436;DHT22;6790;49.520;8.504;2023-06-14T12:24:45;24.80;28.20
13436;DHT22;6790;49.520;8.504;2023-06-14T12:27:14;25.20;27.80
13436;DHT22;6790;49.520;8.504;2023-06-14T12:29:44;24.70;29.50
13436;DHT22;6790;49.520;8.504;2023-06-14T12:32:10;25.20;29.70
13436;DHT22;6790;49.520;8.504;2023-06-14T12:34:36;25.50;28.80
13436;DHT22;6790;49.520;8.504;2023-06-14T12:37:02;24.90;27.70
13436;DHT22;6790;49.520;8.504;2023-06-14T12:39:29;24.90;29.30
13436;DHT22;6790;49.520;8.504;2023-06-14T12:41:57;25.20;27.10
13436;DHT22;6790;49.520;8.504;2023-06-14T12:44:23;24.60;28.80
13436;DHT22;6790;49.520;8.504;2023-06-14T12:46:49;24.70;28.60
13436;DHT22;6790;49.520;8.504;2023-06-14T12:49:16;25.60;27.30
13436;DHT22;6790;49.520;8.504;2023-06-14T12:51:42;26.20;27.60
13436;DHT22;6790;49.520;8.504;2023-06-14T12:54:08;26.20;26.40
13436;DHT22;6790;49.520;8.504;2023-06-14T12:56:34;26.10;26.70
13436;DHT22;6790;49.520;8.504;2023-06-14T12:59:00;26.30;26.20
13436;DHT22;6790;49.520;8.504;2023-06-14T13:01:26;25.70;26.10
13436;DHT22;6790;49.520;8.504;2023-06-14T13:03:52;25.30;28.00
13436;DHT22;6790;49.520;8.504;2023-06-14T13:06:21;25.00;28.70
13436;DHT22;6790;49.520;8.504;2023-06-14T13:08:48;24.30;27.20
13436;DHT22;6790;49.520;8.504;2023-06-14T13:11:14;24.40;28.50
13436;DHT22;6790;49.520;8.504;2023-06-14T13:13:39;24.70;29.10
13436;DHT22;6790;49.520;8.504;2023-06-14T13:16:05;25.10;26.70
13436;DHT22;6790;49.520;8.504;2023-06-14T13:18:31;25.60;27.70
13436;DHT22;6790;49.520;8.504;2023-06-14T13:20:57;26.10;25.90
13436;DHT22;6790;49.520;8.504;2023-06-14T13:23:22;26.80;25.20
13436;DHT22;6790;49.520;8.504;2023-06-14T13:25:48;26.80;24.60
13436;DHT22;6790;49.520;8.504;2023-06-14T13:28:16;25.80;26.20
13436;DHT22;6790;49.520;8.504;2023-06-14T13:30:42;25.10;26.00
13436;DHT22;6790;49.520;8.504;2023-06-14T13:33:08;24.80;26.50
13436;DHT22;6790;49.520;8.504;2023-06-14T13:35:33;24.80;26.90
13436;DHT22;6790;49.520;8.504;2023-06-14T13:38:00;25.20;25.50
13436;DHT22;6790;49.520;8.504;2023-06-14T13:40:25;25.60;27.00
13436;DHT22;6790;49.520;8.504;2023-06-14T13:42:51;26.00;29.60
13436;DHT22;6790;49.520;8.504;2023-06-14T13:45:17;25.90;25.60
13436;DHT22;6790;49.520;8.504;2023-06-14T13:47:43;26.30;26.00
13436;DHT22;6790;49.520;8.504;2023-06-14T13:50:09;26.10;25.20
13436;DHT22;6790;49.520;8.504;2023-06-14T13:52:35;26.20;24.80
13436;DHT22;6790;49.520;8.504;2023-06-14T13:55:01;26.20;28.60
13436;DHT22;6790;49.520;8.504;2023-06-14T13:57:27;26.20;26.40
13436;DHT22;6790;49.520;8.504;2023-06-14T13:59:52;25.90;24.80
13436;DHT22;6790;49.520;8.504;2023-06-14T14:02:20;25.60;26.50
13436;DHT22;6790;49.520;8.504;2023-06-14T14:04:46;25.30;26.10
13436;DHT22;6790;49.520;8.504;2023-06-14T14:07:18;25.00;26.10
13436;DHT22;6790;49.520;8.504;2023-06-14T14:09:44;24.40;26.50
13436;DHT22;6790;49.520;8.504;2023-06-14T14:12:10;24.10;27.00
13436;DHT22;6790;49.520;8.504;2023-06-14T14:14:36;24.30;29.40
13436;DHT22;6790;49.520;8.504;2023-06-14T14:17:02;24.40;28.30
13436;DHT22;6790;49.520;8.504;2023-06-14T14:19:28;24.40;28.10
13436;DHT22;6790;49.520;8.504;2023-06-14T14:21:53;24.50;29.40
13436;DHT22;6790;49.520;8.504;2023-06-14T14:24:19;24.40;27.70
13436;DHT22;6790;49.520;8.504;2023-06-14T14:26:47;24.70;26.80
13436;DHT22;6790;49.520;8.504;2023-06-14T14:29:15;25.30;26.20
13436;DHT22;6790;49.520;8.504;2023-06-14T14:31:42;25.60;27.50
13436;DHT22;6790;49.520;8.504;2023-06-14T14:34:08;25.40;25.70
13436;DHT22;6790;49.520;8.504;2023-06-14T14:36:33;25.30;28.70
13436;DHT22;6790;49.520;8.504;2023-06-14T14:39:03;25.10;26.10
13436;DHT22;6790;49.520;8.504;2023-06-14T14:41:29;25.00;27.40
13436;DHT22;6790;49.520;8.504;2023-06-14T14:43:58;25.40;27.00
13436;DHT22;6790;49.520;8.504;2023-06-14T14:46:26;25.60;27.00
13436;DHT22;6790;49.520;8.504;2023-06-14T14:48:52;25.60;27.80
13436;DHT22;6790;49.520;8.504;2023-06-14T14:51:21;26.20;29.00
13436;DHT22;6790;49.520;8.504;2023-06-14T14:53:46;26.30;29.90
13436;DHT22;6790;49.520;8.504;2023-06-14T14:56:12;26.30;26.40
13436;DHT22;6790;49.520;8.504;2023-06-14T14:58:38;26.30;26.70
13436;DHT22;6790;49.520;8.504;2023-06-14T15:01:04;25.90;26.00
13436;DHT22;6790;49.520;8.504;2023-06-14T15:03:31;25.40;25.20
13436;DHT22;6790;49.520;8.504;2023-06-14T15:05:56;25.30;26.10
13436;DHT22;6790;49.520;8.504;2023-06-14T15:08:22;25.30;25.70
13436;DHT22;6790;49.520;8.504;2023-06-14T15:10:48;25.20;25.00
13436;DHT22;6790;49.520;8.504;2023-06-14T15:13:13;25.20;25.20
13436;DHT22;6790;49.520;8.504;2023-06-14T15:15:39;25.10;26.30
13436;DHT22;6790;49.520;8.504;2023-06-14T15:18:05;25.40;27.20
13436;DHT22;6790;49.520;8.504;2023-06-14T15:20:31;25.60;26.30
13436;DHT22;6790;49.520;8.504;2023-06-14T15:22:56;25.30;25.30
13436;DHT22;6790;49.520;8.504;2023-06-14T15:25:26;25.40;26.40
13436;DHT22;6790;49.520;8.504;2023-06-14T15:27:55;25.30;25.50
13436;DHT22;6790;49.520;8.504;2023-06-14T15:30:22;25.30;25.00
13436;DHT22;6790;49.520;8.504;2023-06-14T15:32:48;25.10;24.90
13436;DHT22;6790;49.520;8.504;2023-06-14T15:35:16;25.00;24.70
13436;DHT22;6790;49.520;8.504;2023-06-14T15:37:43;25.10;26.90
13436;DHT22;6790;49.520;8.504;2023-06-14T15:40:09;25.30;25.40
13436;DHT22;6790;49.520;8.504;2023-06-14T15:42:35;25.30;27.50
13436;DHT22;6790;49.520;8.504;2023-06-14T15:45:00;25.40;25.40
13436;DHT22;6790;49.520;8.504;2023-06-14T15:47:26;25.70;25.20
13436;DHT22;6790;49.520;8.504;2023-06-14T15:49:52;25.50;24.50
13436;DHT22;6790;49.520;8.504;2023-06-14T15:52:17;25.70;26.40
13436;DHT22;6790;49.520;8.504;2023-06-14T15:54:43;25.60;25.00
13436;DHT22;6790;49.520;8.504;2023-06-14T15:57:09;25.60;24.50
13436;DHT22;6790;49.520;8.504;2023-06-14T15:59:35;25.60;28.90
13436;DHT22;6790;49.520;8.504;2023-06-14T16:02:00;25.40;25.30
13436;DHT22;6790;49.520;8.504;2023-06-14T16:04:27;25.20;28.40